Time;durP1;ratioP1;P1;durP2;ratioP2;P2;SDS_P1;SDS_P2;PMS_P1;PMS_P2;Temp;Humidity;BMP_temperature;BMP_pressure;BME280_temperature;BME280_humidity;BME280_pressure;Samples;Min_cycle;Max_cycle;Signal;HPM_P1;HPM_P2
2022/09/11 00:01:39;;;;;;;0.88;0.80;;;16.00;99.90;;;;;;5075951;28;20217;-89
2022/09/11 00:04:08;;;;;;;0.70;0.70;;;16.00;99.90;;;;;;5076480;28;20240;-89
2022/09/11 00:06:36;;;;;;;0.85;0.82;;;16.00;99.90;;;;;;5073172;28;20206;-92
2022/09/11 00:09:06;;;;;;;0.50;0.50;;;16.00;99.90;;;;;;5073237;28;20223;-91
2022/09/11 00:11:38;;;;;;;0.80;0.68;;;15.90;99.90;;;;;;5073646;28;20213;-92
2022/09/11 00:14:09;;;;;;;1.10;0.85;;;15.90;99.90;;;;;;5073941;28;20289;-95
2022/09/11 00:16:40;;;;;;;0.60;0.60;;;15.90;99.90;;;;;;5072129;28;20288;-92
2022/09/11 00:19:11;;;;;;;0.70;0.70;;;15.90;99.90;;;;;;5073249;28;20223;-89
2022/09/11 00:21:40;;;;;;;0.75;0.75;;;15.90;99.90;;;;;;5072840;28;20193;-89
2022/09/11 00:24:09;;;;;;;0.85;0.85;;;15.90;99.90;;;;;;5073105;28;20217;-91
2022/09/11 00:26:39;;;;;;;0.75;0.75;;;15.90;99.90;;;;;;5073280;28;20213;-89
2022/09/11 00:29:07;;;;;;;1.13;1.00;;;15.90;99.90;;;;;;5073111;28;20237;-90
2022/09/11 00:31:35;;;;;;;0.57;0.57;;;15.90;99.90;;;;;;5074951;28;20201;-90
2022/09/11 00:34:06;;;;;;;0.70;0.70;;;15.90;99.90;;;;;;5075249;28;20201;-91
2022/09/11 00:36:40;;;;;;;0.88;0.70;;;15.90;99.90;;;;;;5074754;28;20197;-90
2022/09/11 00:39:09;;;;;;;0.65;0.65;;;15.90;99.90;;;;;;5074489;28;20224;-90
2022/09/11 00:41:40;;;;;;;0.75;0.75;;;15.90;99.90;;;;;;5074550;28;20200;-90
2022/09/11 00:44:47;;;;;;;1.13;0.82;;;15.90;99.90;;;;;;5075089;28;20217;-91
2022/09/11 00:47:18;;;;;;;0.70;0.70;;;15.80;99.90;;;;;;5074738;28;20201;-90
2022/09/11 00:49:51;;;;;;;0.75;0.75;;;15.80;99.90;;;;;;5074822;28;20248;-90
2022/09/11 00:52:26;;;;;;;0.75;0.73;;;15.80;99.90;;;;;;5074625;28;20196;-90
2022/09/11 00:54:59;;;;;;;0.98;0.98;;;15.80;99.90;;;;;;5074654;28;20207;-89
2022/09/11 00:57:32;;;;;;;0.60;0.60;;;15.80;99.90;;;;;;5074449;28;20219;-92
2022/09/11 01:00:02;;;;;;;0.98;0.98;;;15.80;99.90;;;;;;5074721;28;20220;-90
2022/09/11 01:02:33;;;;;;;0.93;0.93;;;15.80;99.90;;;;;;5074480;28;20209;-91
2022/09/11 01:05:04;;;;;;;1.00;1.00;;;15.80;99.90;;;;;;5074166;28;20239;-91
2022/09/11 01:07:35;;;;;;;1.45;0.75;;;15.80;99.90;;;;;;5074630;28;20209;-90
2022/09/11 01:10:05;;;;;;;1.00;0.90;;;15.80;99.90;;;;;;5073905;28;20215;-90
2022/09/11 01:12:42;;;;;;;0.80;0.77;;;15.80;99.90;;;;;;5074712;28;20201;-90
2022/09/11 01:15:19;;;;;;;0.77;0.77;;;15.80;99.90;;;;;;5074048;28;20193;-91
2022/09/11 01:17:55;;;;;;;0.70;0.70;;;15.80;99.90;;;;;;5074363;28;20224;-90
2022/09/11 01:20:36;;;;;;;0.82;0.82;;;15.70;99.90;;;;;;5073183;28;20216;-90
2022/09/11 01:23:33;;;;;;;1.02;0.60;;;15.70;99.90;;;;;;5073658;28;20204;-90
2022/09/11 01:26:22;;;;;;;1.27;1.02;;;15.70;99.90;;;;;;5073602;28;20225;-91
2022/09/11 01:28:58;;;;;;;0.80;0.80;;;15.80;99.90;;;;;;5064469;28;20233;-90
2022/09/11 01:31:35;;;;;;;0.63;0.63;;;15.80;99.90;;;;;;5060064;28;20197;-90
2022/09/11 01:34:11;;;;;;;1.08;0.98;;;15.80;99.90;;;;;;5074450;28;20196;-90
2022/09/11 01:36:44;;;;;;;0.68;0.68;;;15.80;99.90;;;;;;5073695;28;20197;-92
2022/09/11 01:39:15;;;;;;;1.38;1.00;;;15.80;99.90;;;;;;5073794;28;20232;-90
2022/09/11 01:41:51;;;;;;;0.80;0.80;;;15.90;99.90;;;;;;5073304;28;20200;-90
2022/09/11 01:44:26;;;;;;;0.90;0.90;;;15.80;99.90;;;;;;5074094;28;20197;-90
2022/09/11 01:46:55;;;;;;;0.98;0.98;;;15.90;99.90;;;;;;5073778;28;20211;-91
2022/09/11 01:49:27;;;;;;;0.82;0.82;;;15.90;99.90;;;;;;5073059;28;20229;-90
2022/09/11 01:52:01;;;;;;;0.73;0.73;;;15.90;99.90;;;;;;5074212;28;20197;-90
2022/09/11 01:54:34;;;;;;;1.08;0.98;;;15.90;99.90;;;;;;5073437;28;20200;-91
2022/09/11 01:57:06;;;;;;;1.90;1.08;;;15.90;99.90;;;;;;5074100;28;20197;-90
2022/09/11 01:59:41;;;;;;;1.08;1.08;;;15.90;99.90;;;;;;5069620;28;20221;-90
2022/09/11 02:02:13;;;;;;;1.13;1.00;;;15.80;99.90;;;;;;5056563;28;20207;-90
2022/09/11 02:04:48;;;;;;;1.10;1.00;;;15.90;99.90;;;;;;5073258;28;20221;-90
2022/09/11 02:07:21;;;;;;;1.23;1.10;;;15.80;99.90;;;;;;5073172;28;20192;-90
2022/09/11 02:09:55;;;;;;;1.45;1.23;;;15.90;99.90;;;;;;5073302;28;20215;-90
2022/09/11 02:12:27;;;;;;;0.88;0.88;;;15.90;99.90;;;;;;5073331;28;20203;-91
2022/09/11 02:14:58;;;;;;;1.20;1.10;;;15.80;99.90;;;;;;5073649;28;20204;-91
2022/09/11 02:17:35;;;;;;;2.95;1.25;;;15.80;99.90;;;;;;5073202;28;20193;-90
2022/09/11 02:20:05;;;;;;;1.13;1.00;;;15.80;99.90;;;;;;5072824;28;20275;-92
2022/09/11 02:22:35;;;;;;;0.80;0.80;;;15.80;99.90;;;;;;5073057;28;20261;-90
2022/09/11 02:25:04;;;;;;;1.17;1.02;;;15.80;99.90;;;;;;5072673;28;20201;-90
2022/09/11 02:27:32;;;;;;;1.02;1.02;;;15.80;99.90;;;;;;5073183;28;20203;-90
2022/09/11 02:30:02;;;;;;;1.05;0.90;;;15.80;99.90;;;;;;5073150;28;20208;-90
2022/09/11 02:32:32;;;;;;;1.05;1.05;;;15.90;99.90;;;;;;5073133;28;20204;-91
2022/09/11 02:35:00;;;;;;;1.15;1.10;;;15.90;99.90;;;;;;5073058;28;20309;-90
2022/09/11 02:37:38;;;;;;;1.45;0.88;;;15.90;99.90;;;;;;5072728;28;20197;-91
2022/09/11 02:40:29;;;;;;;0.98;0.98;;;15.90;99.90;;;;;;5073298;28;20210;-91
2022/09/11 02:43:16;;;;;;;1.23;1.13;;;15.90;99.90;;;;;;5073095;28;20208;-90
2022/09/11 02:45:54;;;;;;;1.00;0.60;;;16.00;99.90;;;;;;5072753;28;20217;-91
2022/09/11 02:48:36;;;;;;;0.77;0.77;;;15.90;99.90;;;;;;5072768;28;20232;-91
2022/09/11 02:51:14;;;;;;;3.60;1.13;;;15.90;99.90;;;;;;5073018;28;20224;-90
2022/09/11 02:53:49;;;;;;;0.98;0.98;;;16.00;99.90;;;;;;5073632;28;20204;-90
2022/09/11 02:56:26;;;;;;;0.80;0.80;;;15.90;99.90;;;;;;5073218;28;20189;-90
2022/09/11 02:58:58;;;;;;;0.80;0.80;;;16.00;99.90;;;;;;5073102;28;20233;-91
2022/09/11 03:01:28;;;;;;;0.60;0.60;;;15.90;99.90;;;;;;5072479;28;20201;-90
2022/09/11 03:03:56;;;;;;;1.23;1.13;;;15.90;99.90;;;;;;5076774;28;20427;-90
2022/09/11 03:06:26;;;;;;;2.53;1.35;;;15.90;99.90;;;;;;5076935;28;20225;-90
2022/09/11 03:08:55;;;;;;;0.85;0.85;;;15.90;99.90;;;;;;5076395;28;20221;-91
2022/09/11 03:11:23;;;;;;;1.90;1.17;;;15.90;99.90;;;;;;5076779;28;20220;-90
2022/09/11 03:13:52;;;;;;;0.80;0.80;;;15.90;99.90;;;;;;5080204;28;20201;-89
2022/09/11 03:16:20;;;;;;;1.10;0.90;;;15.90;99.90;;;;;;5080772;28;20216;-90
2022/09/11 03:18:50;;;;;;;1.02;0.82;;;15.90;99.90;;;;;;5077961;28;20225;-90
2022/09/11 03:21:18;;;;;;;2.20;1.23;;;15.90;99.90;;;;;;5078482;28;20231;-90
2022/09/11 03:23:46;;;;;;;1.13;1.02;;;15.90;99.90;;;;;;5076171;28;20206;-91
2022/09/11 03:26:16;;;;;;;0.70;0.70;;;15.90;99.90;;;;;;5076594;28;20221;-91
2022/09/11 03:28:45;;;;;;;0.90;0.90;;;15.90;99.90;;;;;;5075790;28;20240;-91
2022/09/11 03:31:13;;;;;;;1.10;1.00;;;15.90;99.90;;;;;;5076274;28;20205;-91
2022/09/11 03:33:42;;;;;;;0.80;0.80;;;15.90;99.90;;;;;;5076552;28;20205;-91
2022/09/11 03:36:12;;;;;;;3.05;0.85;;;15.90;99.90;;;;;;5076396;28;20209;-90
2022/09/11 03:38:41;;;;;;;1.67;1.40;;;15.80;99.90;;;;;;5067426;28;20226;-90
2022/09/11 03:41:10;;;;;;;1.08;1.05;;;15.90;99.90;;;;;;5067787;28;20211;-87
2022/09/11 03:43:38;;;;;;;4.20;1.52;;;15.90;99.90;;;;;;5075716;28;20201;-87
2022/09/11 03:46:07;;;;;;;1.02;0.90;;;15.80;99.90;;;;;;5076395;28;20220;-88
2022/09/11 03:48:35;;;;;;;2.58;0.98;;;15.90;99.90;;;;;;5075723;28;20244;-87
2022/09/11 03:51:04;;;;;;;2.25;1.20;;;15.80;99.90;;;;;;5075893;28;20212;-87
2022/09/11 03:53:34;;;;;;;0.85;0.85;;;15.90;99.90;;;;;;5076048;28;20197;-87
2022/09/11 03:56:05;;;;;;;1.23;1.05;;;15.90;99.90;;;;;;5075646;28;20190;-87
2022/09/11 03:58:33;;;;;;;0.77;0.77;;;15.80;99.90;;;;;;5075841;28;20221;-89
2022/09/11 04:01:01;;;;;;;0.73;0.73;;;15.80;99.90;;;;;;5075839;28;20199;-87
2022/09/11 04:03:30;;;;;;;1.40;1.30;;;15.80;99.90;;;;;;5075704;28;20212;-87
2022/09/11 04:06:00;;;;;;;0.80;0.80;;;15.80;99.90;;;;;;5075161;28;20221;-88
2022/09/11 04:08:32;;;;;;;1.40;1.20;;;15.80;99.90;;;;;;5075475;28;20225;-88
2022/09/11 04:11:04;;;;;;;0.80;0.80;;;15.80;99.90;;;;;;5075398;28;20254;-88
2022/09/11 04:13:34;;;;;;;0.80;0.80;;;15.80;99.90;;;;;;5074778;28;20201;-88
2022/09/11 04:16:05;;;;;;;0.77;0.77;;;15.80;99.90;;;;;;5075558;28;20197;-87
2022/09/11 04:18:36;;;;;;;0.90;0.90;;;15.80;99.90;;;;;;5075330;28;20220;-88
2022/09/11 04:21:04;;;;;;;1.10;0.95;;;15.80;99.90;;;;;;5075636;28;20205;-87
2022/09/11 04:23:32;;;;;;;0.57;0.57;;;15.80;99.90;;;;;;5074985;28;20205;-88
2022/09/11 04:26:03;;;;;;;1.00;0.90;;;15.90;99.90;;;;;;5075156;28;20205;-88
2022/09/11 04:28:32;;;;;;;0.88;0.88;;;15.80;99.90;;;;;;5075097;28;20241;-89
2022/09/11 04:31:02;;;;;;;0.80;0.80;;;15.80;99.90;;;;;;5075174;28;20213;-88
2022/09/11 04:33:31;;;;;;;1.58;1.48;;;15.80;99.90;;;;;;5075067;28;20205;-89
2022/09/11 04:36:04;;;;;;;1.25;1.15;;;15.60;99.90;;;;;;5074674;28;20209;-88
2022/09/11 04:38:33;;;;;;;1.20;1.15;;;15.50;99.90;;;;;;5074822;28;20218;-88
2022/09/11 04:41:04;;;;;;;4.32;1.30;;;15.40;99.90;;;;;;5075094;28;20223;-87
2022/09/11 04:43:33;;;;;;;1.55;1.45;;;15.40;99.90;;;;;;5059294;28;20189;-87
2022/09/11 04:46:02;;;;;;;1.33;1.23;;;15.40;99.90;;;;;;5074687;28;20205;-88
2022/09/11 04:48:30;;;;;;;1.75;1.48;;;15.40;99.90;;;;;;5074699;28;20350;-88
2022/09/11 04:51:01;;;;;;;1.42;1.33;;;15.40;99.90;;;;;;5074364;28;20216;-88
2022/09/11 04:53:30;;;;;;;1.30;1.20;;;15.40;99.90;;;;;;5074740;28;20216;-88
2022/09/11 04:56:05;;;;;;;1.13;1.08;;;15.50;99.90;;;;;;5074739;28;20198;-87
2022/09/11 04:58:34;;;;;;;1.58;1.40;;;15.60;99.90;;;;;;5073967;28;20220;-87
2022/09/11 05:01:05;;;;;;;1.23;1.00;;;15.60;99.90;;;;;;5073607;28;20205;-87
2022/09/11 05:03:34;;;;;;;1.52;1.42;;;15.60;99.90;;;;;;5074362;28;20197;-87
2022/09/11 05:06:05;;;;;;;1.35;1.25;;;15.70;99.90;;;;;;5073521;28;20201;-88
2022/09/11 05:08:35;;;;;;;2.38;1.40;;;15.80;99.90;;;;;;5074292;28;20251;-88
2022/09/11 05:11:05;;;;;;;1.67;1.20;;;15.80;99.90;;;;;;5074579;28;20199;-88
2022/09/11 05:13:34;;;;;;;1.90;1.80;;;15.90;99.90;;;;;;5074189;28;20213;-88
2022/09/11 05:16:04;;;;;;;1.48;1.38;;;15.90;99.90;;;;;;5074435;28;20262;-88
2022/09/11 05:18:32;;;;;;;1.25;1.15;;;15.90;99.90;;;;;;5074262;28;20228;-88
2022/09/11 05:21:02;;;;;;;1.65;1.55;;;16.00;99.90;;;;;;5073846;28;20201;-89
2022/09/11 05:23:31;;;;;;;1.20;1.10;;;16.00;99.90;;;;;;5074080;28;20208;-88
2022/09/11 05:26:01;;;;;;;1.23;0.93;;;16.00;99.90;;;;;;5073681;28;20256;-88
2022/09/11 05:28:31;;;;;;;1.15;1.15;;;16.10;99.90;;;;;;5073635;28;20221;-88
2022/09/11 05:31:01;;;;;;;1.08;0.77;;;16.10;99.90;;;;;;5074492;28;20204;-88
2022/09/11 05:33:30;;;;;;;3.53;1.23;;;16.10;99.90;;;;;;5073243;28;20193;-89
2022/09/11 05:36:05;;;;;;;1.77;0.85;;;16.10;99.90;;;;;;5073686;28;20220;-91
2022/09/11 05:38:35;;;;;;;0.73;0.73;;;16.10;99.90;;;;;;5073491;28;20231;-91
2022/09/11 05:41:06;;;;;;;8.25;1.00;;;16.20;99.90;;;;;;5073415;28;20193;-91
2022/09/11 05:43:36;;;;;;;1.35;1.10;;;16.20;99.90;;;;;;5073734;28;20208;-90
2022/09/11 05:46:06;;;;;;;2.03;1.42;;;16.20;99.90;;;;;;5073430;28;20207;-91
2022/09/11 05:48:37;;;;;;;1.20;1.20;;;16.20;99.90;;;;;;5061829;28;20233;-92
2022/09/11 05:51:08;;;;;;;1.25;1.15;;;16.20;99.90;;;;;;5063844;28;20200;-91
2022/09/11 05:53:37;;;;;;;1.30;1.20;;;16.20;99.90;;;;;;5071314;28;20204;-90
2022/09/11 05:56:07;;;;;;;0.90;0.90;;;16.30;99.90;;;;;;5053687;28;20217;-91
2022/09/11 05:58:43;;;;;;;0.80;0.80;;;16.20;99.90;;;;;;5071981;28;20213;-91
2022/09/11 06:01:13;;;;;;;0.70;0.65;;;16.30;99.90;;;;;;5073193;28;20201;-88
2022/09/11 06:03:42;;;;;;;1.05;0.95;;;16.30;99.90;;;;;;5073288;28;20205;-88
2022/09/11 06:06:12;;;;;;;1.23;1.00;;;16.30;99.90;;;;;;5073272;28;20205;-88
2022/09/11 06:08:42;;;;;;;1.35;1.25;;;16.30;99.90;;;;;;5072648;28;20225;-88
2022/09/11 06:11:12;;;;;;;0.90;0.90;;;16.40;99.90;;;;;;5072851;28;20247;-88
2022/09/11 06:13:45;;;;;;;1.02;0.98;;;16.40;99.90;;;;;;5072589;28;20219;-87
2022/09/11 06:16:15;;;;;;;1.45;1.30;;;16.40;99.90;;;;;;5073523;28;20197;-87
2022/09/11 06:18:47;;;;;;;1.48;1.38;;;16.40;99.90;;;;;;5074308;28;20217;-91
2022/09/11 06:21:19;;;;;;;1.00;1.00;;;16.40;99.90;;;;;;5069113;28;20189;-90
2022/09/11 06:23:47;;;;;;;1.05;1.05;;;16.40;99.90;;;;;;5063858;28;20250;-91
2022/09/11 06:26:18;;;;;;;1.67;1.58;;;16.30;99.90;;;;;;5073520;28;20203;-90
2022/09/11 06:28:49;;;;;;;4.30;1.67;;;16.20;99.90;;;;;;5072890;28;20236;-90
2022/09/11 06:31:19;;;;;;;2.35;1.50;;;16.30;99.90;;;;;;5073084;28;20201;-90
2022/09/11 06:33:49;;;;;;;0.90;0.90;;;16.30;99.90;;;;;;5072781;28;20207;-90
2022/09/11 06:36:19;;;;;;;1.73;1.63;;;16.20;99.90;;;;;;5074777;28;20231;-90
2022/09/11 06:38:53;;;;;;;1.33;1.23;;;16.20;99.90;;;;;;5076928;28;20266;-90
2022/09/11 06:41:23;;;;;;;0.90;0.90;;;16.10;99.90;;;;;;5077638;28;20205;-90
2022/09/11 06:43:53;;;;;;;1.42;1.15;;;16.10;99.90;;;;;;5077160;28;20212;-90
2022/09/11 06:46:23;;;;;;;1.27;1.20;;;16.00;99.90;;;;;;5076557;28;20212;-90
2022/09/11 06:48:53;;;;;;;1.25;1.20;;;16.00;99.90;;;;;;5076663;28;20221;-90
2022/09/11 06:51:23;;;;;;;0.88;0.88;;;16.00;99.90;;;;;;5077376;28;20204;-90
2022/09/11 06:53:55;;;;;;;1.30;1.20;;;16.00;99.90;;;;;;5077385;28;20209;-91
2022/09/11 06:56:23;;;;;;;1.50;1.13;;;16.10;99.90;;;;;;5077447;28;20193;-89
2022/09/11 06:58:53;;;;;;;2.05;1.33;;;16.10;99.90;;;;;;5076918;28;20223;-90
2022/09/11 07:01:22;;;;;;;1.27;1.17;;;16.10;99.90;;;;;;5077604;28;20212;-89
2022/09/11 07:03:53;;;;;;;2.00;1.40;;;16.10;99.90;;;;;;5082733;28;20209;-89
2022/09/11 07:06:23;;;;;;;1.17;1.17;;;16.20;99.90;;;;;;5082197;28;20231;-90
2022/09/11 07:08:52;;;;;;;1.48;1.38;;;16.20;99.90;;;;;;5081870;28;20229;-90
2022/09/11 07:11:20;;;;;;;0.90;0.90;;;16.20;99.90;;;;;;5085481;28;20227;-91
2022/09/11 07:13:49;;;;;;;1.25;1.17;;;16.30;99.90;;;;;;5078772;28;20205;-90
2022/09/11 07:16:18;;;;;;;1.85;1.23;;;16.30;99.90;;;;;;5076967;28;20204;-90
2022/09/11 07:18:48;;;;;;;1.10;1.10;;;16.30;99.90;;;;;;5075219;28;20217;-89
2022/09/11 07:21:19;;;;;;;1.40;1.30;;;16.40;99.90;;;;;;5076487;28;20200;-90
2022/09/11 07:23:53;;;;;;;1.25;1.20;;;16.50;99.90;;;;;;5076478;28;20204;-90
2022/09/11 07:26:23;;;;;;;1.40;1.30;;;16.50;99.90;;;;;;5076199;28;20205;-90
2022/09/11 07:28:52;;;;;;;1.48;1.17;;;16.50;99.90;;;;;;5067835;28;20221;-90
2022/09/11 07:31:24;;;;;;;1.58;1.48;;;16.60;99.90;;;;;;5075994;28;20201;-88
2022/09/11 07:33:53;;;;;;;1.30;1.20;;;16.60;99.90;;;;;;5076064;28;20219;-87
2022/09/11 07:36:32;;;;;;;1.70;1.60;;;16.60;99.90;;;;;;5076074;28;20212;-88
2022/09/11 07:39:02;;;;;;;1.58;1.48;;;16.70;99.90;;;;;;5076062;28;20221;-88
2022/09/11 07:41:30;;;;;;;1.40;1.30;;;16.80;99.90;;;;;;5076102;28;20209;-88
2022/09/11 07:44:00;;;;;;;1.40;1.30;;;17.00;99.90;;;;;;5075635;28;20284;-89
2022/09/11 07:46:31;;;;;;;2.22;1.35;;;17.20;99.90;;;;;;5076006;28;20212;-89
2022/09/11 07:49:00;;;;;;;1.45;1.35;;;17.40;99.90;;;;;;5075178;28;20221;-89
2022/09/11 07:51:29;;;;;;;1.42;1.33;;;17.40;99.90;;;;;;5076356;28;20197;-86
2022/09/11 07:53:58;;;;;;;1.50;1.40;;;17.40;99.90;;;;;;5075695;28;20197;-88
2022/09/11 07:56:27;;;;;;;1.20;1.20;;;17.40;99.90;;;;;;5075083;28;20262;-87
2022/09/11 07:58:56;;;;;;;1.45;1.35;;;17.40;99.90;;;;;;5075838;28;20228;-87
2022/09/11 08:01:26;;;;;;;1.38;1.27;;;17.40;99.90;;;;;;5075623;28;20201;-87
2022/09/11 08:03:57;;;;;;;1.27;1.27;;;17.50;99.90;;;;;;5075653;28;20213;-87
2022/09/11 08:06:27;;;;;;;2.42;1.55;;;17.80;99.90;;;;;;5075188;28;20292;-87
2022/09/11 08:08:57;;;;;;;1.50;1.40;;;18.10;99.90;;;;;;5062992;28;20224;-87
2022/09/11 08:11:27;;;;;;;2.92;1.50;;;18.40;99.90;;;;;;5075866;28;20224;-88
2022/09/11 08:13:56;;;;;;;1.15;1.15;;;18.60;99.90;;;;;;5075474;28;20197;-87
2022/09/11 08:16:26;;;;;;;1.70;1.60;;;18.60;99.90;;;;;;5075220;28;20205;-87
2022/09/11 08:18:56;;;;;;;1.48;1.35;;;18.70;99.90;;;;;;5074586;28;20217;-87
2022/09/11 08:21:26;;;;;;;1.27;1.20;;;18.90;99.90;;;;;;5075522;28;20208;-87
2022/09/11 08:23:54;;;;;;;1.13;1.02;;;19.20;99.90;;;;;;5075310;28;20201;-87
2022/09/11 08:26:24;;;;;;;1.55;1.33;;;19.50;99.90;;;;;;5074806;28;20283;-87
2022/09/11 08:28:54;;;;;;;1.77;1.67;;;19.60;99.90;;;;;;5074920;28;20229;-88
2022/09/11 08:31:25;;;;;;;1.52;1.40;;;19.20;99.90;;;;;;5073816;28;20224;-87
2022/09/11 08:33:53;;;;;;;1.42;1.33;;;19.10;99.90;;;;;;5072441;28;20213;-87
2022/09/11 08:36:24;;;;;;;1.75;1.65;;;19.10;99.90;;;;;;5052543;28;20218;-87
2022/09/11 08:38:53;;;;;;;0.95;0.95;;;19.10;99.90;;;;;;5066666;28;20237;-87
2022/09/11 08:41:30;;;;;;;1.63;1.48;;;19.20;99.90;;;;;;5073039;28;20209;-87
2022/09/11 08:44:03;;;;;;;1.60;1.30;;;19.20;99.90;;;;;;5072508;28;20216;-87
2022/09/11 08:46:35;;;;;;;1.55;1.45;;;19.30;99.90;;;;;;5072652;28;20221;-86
2022/09/11 08:49:10;;;;;;;1.60;1.50;;;19.30;99.90;;;;;;5052294;28;20234;-87
2022/09/11 08:51:40;;;;;;;1.55;1.45;;;19.30;99.90;;;;;;5056613;28;20209;-87
2022/09/11 08:54:17;;;;;;;1.85;1.60;;;19.10;99.90;;;;;;5072175;28;20208;-87
2022/09/11 08:56:46;;;;;;;0.95;0.93;;;19.20;99.90;;;;;;5072373;28;20200;-86
2022/09/11 08:59:22;;;;;;;1.38;1.30;;;19.20;99.90;;;;;;5071661;28;20220;-86
2022/09/11 09:02:01;;;;;;;1.38;1.27;;;18.90;99.90;;;;;;5071843;28;20205;-89
2022/09/11 09:04:44;;;;;;;1.75;1.23;;;18.90;99.90;;;;;;5052141;28;20217;-88
2022/09/11 09:07:23;;;;;;;1.15;1.10;;;18.90;99.90;;;;;;5063107;28;20213;-86
2022/09/11 09:09:59;;;;;;;2.17;1.77;;;18.90;99.90;;;;;;5071890;28;20232;-82
2022/09/11 09:12:38;;;;;;;1.90;1.13;;;19.00;99.90;;;;;;5072345;28;20212;-83
2022/09/11 09:15:19;;;;;;;3.17;1.27;;;19.00;99.90;;;;;;5072772;28;20205;-83
2022/09/11 09:17:54;;;;;;;1.10;1.10;;;19.10;99.90;;;;;;5072509;28;20228;-84
2022/09/11 09:20:28;;;;;;;1.20;1.20;;;19.10;99.90;;;;;;5072446;28;20220;-84
2022/09/11 09:23:01;;;;;;;1.75;1.23;;;19.10;99.90;;;;;;5072084;28;20212;-84
2022/09/11 09:25:36;;;;;;;1.42;1.33;;;19.10;99.90;;;;;;5071959;28;20216;-84
2022/09/11 09:28:08;;;;;;;2.03;1.63;;;19.30;99.90;;;;;;5072315;28;20235;-82
2022/09/11 09:30:44;;;;;;;0.70;0.70;;;19.90;99.90;;;;;;5071574;28;20229;-83
2022/09/11 09:33:26;;;;;;;2.45;1.10;;;20.80;99.90;;;;;;5071058;28;20212;-82
2022/09/11 09:35:55;;;;;;;1.52;1.42;;;22.10;99.90;;;;;;5071641;28;20212;-82
2022/09/11 09:38:28;;;;;;;0.85;0.85;;;22.80;99.90;;;;;;5070898;28;20225;-82
2022/09/11 09:41:10;;;;;;;1.02;1.02;;;23.10;99.90;;;;;;5071636;28;20213;-82
2022/09/11 09:43:50;;;;;;;1.25;1.15;;;22.70;99.90;;;;;;5071439;28;20216;-82
2022/09/11 09:46:26;;;;;;;1.45;1.35;;;21.80;99.90;;;;;;5070975;28;20224;-81
2022/09/11 09:48:54;;;;;;;1.00;1.00;;;20.60;99.90;;;;;;5070364;28;20209;-83
2022/09/11 09:51:23;;;;;;;1.55;1.38;;;19.60;99.90;;;;;;5064860;28;20409;-82
2022/09/11 09:53:57;;;;;;;1.67;1.38;;;18.80;99.90;;;;;;5073731;28;20198;-82
2022/09/11 09:56:25;;;;;;;1.50;1.40;;;18.20;99.90;;;;;;5073628;28;20204;-82
2022/09/11 09:59:01;;;;;;;2.17;1.98;;;17.70;99.90;;;;;;5072874;28;20225;-81
2022/09/11 10:01:48;;;;;;;1.50;1.40;;;17.50;99.90;;;;;;5073249;28;20200;-82
2022/09/11 10:04:20;;;;;;;2.45;1.45;;;17.20;99.90;;;;;;5073361;28;20213;-82
2022/09/11 10:06:50;;;;;;;2.08;1.80;;;17.00;99.90;;;;;;5073462;28;20208;-83
2022/09/11 10:09:23;;;;;;;2.42;2.10;;;17.00;99.90;;;;;;5073152;28;20235;-83
2022/09/11 10:12:05;;;;;;;2.08;1.98;;;16.90;99.90;;;;;;5072557;28;20204;-83
2022/09/11 10:14:40;;;;;;;4.03;2.80;;;16.80;99.90;;;;;;5073175;28;20197;-83
2022/09/11 10:17:31;;;;;;;1.88;1.77;;;16.80;99.90;;;;;;5072986;28;20220;-83
2022/09/11 10:20:20;;;;;;;2.42;2.22;;;16.90;99.90;;;;;;5072691;28;20224;-82
2022/09/11 10:22:50;;;;;;;1.30;1.20;;;17.10;99.90;;;;;;5073425;28;20201;-82
2022/09/11 10:25:25;;;;;;;2.05;1.95;;;17.20;99.90;;;;;;5072638;28;20202;-83
2022/09/11 10:28:02;;;;;;;1.80;1.70;;;17.50;99.90;;;;;;5072579;28;20314;-83
2022/09/11 10:30:36;;;;;;;10.57;2.10;;;17.70;99.90;;;;;;5072433;28;20221;-83
2022/09/11 10:33:15;;;;;;;2.38;1.95;;;17.90;99.90;;;;;;5072616;28;20207;-81
2022/09/11 10:35:51;;;;;;;1.92;1.70;;;17.90;99.90;;;;;;5072624;28;20205;-81
2022/09/11 10:38:21;;;;;;;1.45;1.35;;;17.90;99.90;;;;;;5072751;28;20231;-80
2022/09/11 10:41:03;;;;;;;1.45;1.35;;;17.80;99.90;;;;;;5072749;28;20204;-80
2022/09/11 10:43:42;;;;;;;1.70;1.60;;;17.60;99.90;;;;;;5072480;28;20200;-81
2022/09/11 10:46:33;;;;;;;2.40;1.50;;;17.60;99.90;;;;;;5072610;28;20197;-80
2022/09/11 10:49:19;;;;;;;1.58;1.48;;;17.50;99.90;;;;;;5072217;28;20232;-80
2022/09/11 10:52:00;;;;;;;1.55;1.45;;;17.50;99.90;;;;;;5073139;28;20209;-80
2022/09/11 10:54:45;;;;;;;1.30;1.30;;;17.40;99.90;;;;;;5072975;28;20197;-80
2022/09/11 10:57:22;;;;;;;2.30;2.10;;;17.20;99.90;;;;;;5072915;28;20220;-80
2022/09/11 11:00:04;;;;;;;2.30;2.10;;;17.10;99.90;;;;;;5064833;28;20224;-80
2022/09/11 11:02:37;;;;;;;2.13;1.98;;;17.10;99.90;;;;;;5072627;28;20200;-80
2022/09/11 11:05:08;;;;;;;1.63;1.52;;;17.10;99.90;;;;;;5069933;28;20198;-83
2022/09/11 11:08:06;;;;;;;2.10;2.00;;;17.10;99.90;;;;;;5072251;28;20198;-80
2022/09/11 11:10:47;;;;;;;1.80;1.70;;;17.20;99.90;;;;;;5072228;28;20228;-81
2022/09/11 11:13:32;;;;;;;1.48;1.42;;;17.90;99.90;;;;;;5064773;28;20341;-82
2022/09/11 11:16:11;;;;;;;1.83;1.70;;;18.40;99.90;;;;;;5052219;28;20215;-82
2022/09/11 11:19:06;;;;;;;1.75;1.65;;;18.50;99.90;;;;;;5052905;28;20234;-83
2022/09/11 11:21:47;;;;;;;1.13;1.13;;;18.40;99.90;;;;;;5059685;28;20201;-82
2022/09/11 11:24:31;;;;;;;1.60;1.50;;;18.20;99.90;;;;;;5075987;28;20208;-82
2022/09/11 11:27:21;;;;;;;1.85;1.48;;;18.10;99.90;;;;;;5076165;28;20201;-82
2022/09/11 11:30:10;;;;;;;1.40;1.30;;;18.10;99.90;;;;;;5075865;28;20236;-82
2022/09/11 11:33:00;;;;;;;1.63;1.52;;;18.30;99.90;;;;;;5076064;28;20201;-82
2022/09/11 11:35:33;;;;;;;1.30;1.20;;;18.60;99.90;;;;;;5067038;28;20204;-82
2022/09/11 11:38:09;;;;;;;1.00;1.00;;;18.70;99.90;;;;;;5072565;28;20307;-82
2022/09/11 11:40:42;;;;;;;1.55;1.38;;;18.60;99.90;;;;;;5075303;28;20201;-82
2022/09/11 11:43:16;;;;;;;2.85;1.58;;;18.90;99.90;;;;;;5075309;28;20247;-81
2022/09/11 11:45:52;;;;;;;1.70;1.45;;;18.90;99.90;;;;;;5075594;28;20265;-82
2022/09/11 11:48:25;;;;;;;1.23;1.13;;;19.10;99.90;;;;;;5072446;28;20236;-83
2022/09/11 11:51:30;;;;;;;3.58;1.80;;;19.20;99.90;;;;;;5072026;28;20224;-87
2022/09/11 11:54:04;;;;;;;0.93;0.93;;;19.10;99.90;;;;;;5075755;28;20208;-86
2022/09/11 11:56:39;;;;;;;0.93;0.93;;;19.10;99.90;;;;;;5075984;28;20201;-88
2022/09/11 11:59:17;;;;;;;1.52;1.42;;;19.10;99.90;;;;;;5075401;28;20220;-88
2022/09/11 12:01:50;;;;;;;1.55;1.40;;;18.80;99.90;;;;;;5075886;28;20233;-86
2022/09/11 12:04:31;;;;;;;0.90;0.90;;;18.70;99.90;;;;;;5075369;28;20206;-86
2022/09/11 12:07:00;;;;;;;1.15;1.15;;;18.40;99.90;;;;;;5074870;28;20201;-87
2022/09/11 12:09:30;;;;;;;1.00;1.00;;;18.30;99.90;;;;;;5074367;28;20224;-86
2022/09/11 12:12:06;;;;;;;1.48;1.38;;;18.20;99.90;;;;;;5075414;28;20317;-87
2022/09/11 12:14:35;;;;;;;0.95;0.93;;;18.00;99.90;;;;;;5075102;28;20208;-87
2022/09/11 12:17:20;;;;;;;1.00;0.90;;;18.00;99.90;;;;;;5075365;28;20212;-87
2022/09/11 12:20:14;;;;;;;1.23;1.13;;;18.00;99.90;;;;;;5074854;28;20221;-87
2022/09/11 12:22:45;;;;;;;4.03;1.67;;;17.90;99.90;;;;;;5075329;28;20212;-87
2022/09/11 12:26:03;;;;;;;1.05;1.05;;;17.80;99.90;;;;;;5075083;28;20202;-86
2022/09/11 12:28:33;;;;;;;0.90;0.90;;;17.60;99.90;;;;;;5074911;28;20233;-87
2022/09/11 12:31:04;;;;;;;3.72;1.00;;;17.50;99.90;;;;;;5074580;28;20212;-87
2022/09/11 12:33:53;;;;;;;1.25;0.98;;;17.40;99.90;;;;;;5074002;28;20203;-87
2022/09/11 12:36:49;;;;;;;0.82;0.82;;;17.40;99.90;;;;;;5074764;28;20207;-86
2022/09/11 12:39:31;;;;;;;0.75;0.75;;;17.40;99.90;;;;;;5074969;28;20221;-87
2022/09/11 12:42:46;;;;;;;1.00;1.00;;;17.40;99.90;;;;;;5054900;28;20194;-87
2022/09/11 12:45:34;;;;;;;0.77;0.75;;;17.50;99.90;;;;;;5060530;28;20204;-88
2022/09/11 12:48:09;;;;;;;0.50;0.50;;;17.50;99.90;;;;;;5074193;28;20228;-88
2022/09/11 12:50:40;;;;;;;0.52;0.52;;;17.60;99.90;;;;;;5074584;28;20211;-87
2022/09/11 12:53:16;;;;;;;0.52;0.52;;;17.90;99.90;;;;;;5074314;28;20235;-87
2022/09/11 12:55:54;;;;;;;0.60;0.60;;;18.10;99.90;;;;;;5074626;28;20258;-87
2022/09/11 12:58:32;;;;;;;0.50;0.50;;;18.30;99.90;;;;;;5073945;28;20228;-87
2022/09/11 13:01:05;;;;;;;0.50;0.50;;;18.40;99.90;;;;;;5074490;28;20197;-87
2022/09/11 13:03:36;;;;;;;0.85;0.85;;;18.30;99.90;;;;;;5074269;28;20217;-87
2022/09/11 13:06:09;;;;;;;0.73;0.73;;;18.30;99.90;;;;;;5074239;28;20216;-88
2022/09/11 13:08:44;;;;;;;0.47;0.47;;;18.60;99.90;;;;;;5073629;28;20226;-87
2022/09/11 13:11:39;;;;;;;0.75;0.75;;;18.80;99.90;;;;;;5074255;28;20247;-88
2022/09/11 13:14:37;;;;;;;0.73;0.73;;;18.90;99.90;;;;;;5074870;28;20209;-88
2022/09/11 13:17:14;;;;;;;0.50;0.50;;;18.90;99.90;;;;;;5073965;28;20201;-87
2022/09/11 13:19:42;;;;;;;0.50;0.50;;;19.10;99.90;;;;;;5074336;28;20220;-87
2022/09/11 13:22:27;;;;;;;0.65;0.65;;;19.30;99.90;;;;;;5074419;28;20201;-87